Time;durP1;ratioP1;P1;durP2;ratioP2;P2;SDS_P1;SDS_P2;PMS_P1;PMS_P2;Temp;Humidity;BMP_temperature;BMP_pressure;BME280_temperature;BME280_humidity;BME280_pressure;Samples;Min_cycle;Max_cycle;Signal;HPM_P1;HPM_P2
2021/07/09 00:02:11;;;;;;;6.80;2.75;;;;;;;19.06;74.97;100745.34;5018205;28;20502;-87
2021/07/09 00:04:37;;;;;;;3.03;2.37;;;;;;;19.05;74.97;100732.72;5021567;28;20407;-87
2021/07/09 00:07:03;;;;;;;5.50;2.35;;;;;;;19.00;74.60;100731.97;5020870;28;20460;-88
2021/07/09 00:09:28;;;;;;;6.47;2.80;;;;;;;19.04;74.80;100739.31;5022741;28;20805;-86
2021/07/09 00:11:55;;;;;;;7.03;2.57;;;;;;;19.05;74.78;100748.38;5018431;28;20498;-88
2021/07/09 00:14:27;;;;;;;10.55;2.47;;;;;;;19.03;74.90;100734.94;5017748;28;20414;-87
2021/07/09 00:16:53;;;;;;;5.22;2.60;;;;;;;19.03;75.02;100736.88;5018513;28;20960;-88
2021/07/09 00:19:19;;;;;;;5.43;2.88;;;;;;;19.02;74.79;100736.06;5018468;28;20506;-88
2021/07/09 00:21:45;;;;;;;3.30;2.23;;;;;;;18.97;74.74;100727.88;5021874;28;20889;-87
2021/07/09 00:24:12;;;;;;;4.90;2.50;;;;;;;18.92;74.72;100725.19;5021852;28;20541;-88
2021/07/09 00:26:38;;;;;;;4.60;2.40;;;;;;;18.92;75.01;100724.38;5008861;28;20411;-88
2021/07/09 00:29:04;;;;;;;3.50;2.50;;;;;;;18.90;75.15;100719.16;5019635;28;20455;-88
2021/07/09 00:31:30;;;;;;;2.60;2.38;;;;;;;18.91;75.21;100728.22;5022247;28;20488;-87
2021/07/09 00:33:56;;;;;;;4.68;2.75;;;;;;;18.89;75.17;100720.31;5019072;28;20479;-87
2021/07/09 00:36:22;;;;;;;7.35;2.95;;;;;;;18.88;74.94;100720.56;5021715;28;20418;-87
2021/07/09 00:38:47;;;;;;;2.93;2.43;;;;;;;18.85;74.98;100716.50;5023155;28;20461;-87
2021/07/09 00:41:12;;;;;;;6.03;2.83;;;;;;;18.87;75.04;100717.00;5019118;28;20418;-88
2021/07/09 00:43:38;;;;;;;7.67;2.80;;;;;;;18.86;75.14;100712.66;5020714;28;20430;-88
2021/07/09 00:46:03;;;;;;;4.07;2.47;;;;;;;18.87;75.24;100721.72;5022533;28;20422;-88
2021/07/09 00:48:29;;;;;;;6.22;2.58;;;;;;;18.85;75.13;100711.00;5015964;28;20415;-88
2021/07/09 00:50:59;;;;;;;7.07;2.70;;;;;;;18.87;75.10;100725.25;5018678;28;20415;-88
2021/07/09 00:53:25;;;;;;;5.77;2.57;;;;;;;18.86;75.11;100718.13;5019226;28;20476;-88
2021/07/09 00:55:51;;;;;;;3.60;2.53;;;;;;;18.79;75.10;100722.34;5020965;28;20411;-87
2021/07/09 00:58:17;;;;;;;2.80;2.55;;;;;;;18.76;75.34;100717.44;5018438;28;20411;-87
2021/07/09 01:00:42;;;;;;;5.00;2.70;;;;;;;18.76;75.09;100726.50;5018171;28;20445;-88
2021/07/09 01:03:09;;;;;;;7.60;2.80;;;;;;;18.76;75.25;100729.25;5015570;28;20447;-87
2021/07/09 01:05:35;;;;;;;7.63;2.80;;;;;;;18.73;75.40;100727.09;5020314;28;20419;-88
2021/07/09 01:08:03;;;;;;;5.32;3.17;;;;;;;18.74;75.23;100734.19;5019388;28;20446;-88
2021/07/09 01:10:28;;;;;;;6.22;2.95;;;;;;;18.75;75.10;100735.84;5018140;28;20977;-88
2021/07/09 01:12:54;;;;;;;5.73;2.93;;;;;;;18.74;75.17;100745.16;5019798;28;20410;-87
2021/07/09 01:15:19;;;;;;;6.28;2.83;;;;;;;18.74;75.27;100741.63;5018348;28;20434;-88
2021/07/09 01:17:45;;;;;;;4.10;2.50;;;;;;;18.74;75.23;100738.88;5017897;28;20403;-88
2021/07/09 01:20:13;;;;;;;3.38;2.50;;;;;;;18.72;75.15;100735.59;5019136;28;20890;-88
2021/07/09 01:22:42;;;;;;;5.30;2.70;;;;;;;18.69;75.10;100742.50;5018905;28;20415;-87
2021/07/09 01:25:11;;;;;;;4.75;2.63;;;;;;;18.71;75.01;100748.50;5019496;28;21032;-88
2021/07/09 01:27:38;;;;;;;3.60;2.40;;;;;;;18.67;74.87;100738.41;5015812;28;20775;-86
2021/07/09 01:30:09;;;;;;;7.28;3.20;;;;;;;18.65;75.04;100738.69;5020840;28;20483;-87
2021/07/09 01:32:34;;;;;;;3.80;3.13;;;;;;;18.62;74.98;100734.63;5016808;28;20461;-88
2021/07/09 01:35:00;;;;;;;8.13;3.30;;;;;;;18.62;75.13;100736.53;5017987;28;21095;-87
2021/07/09 01:37:25;;;;;;;6.43;2.83;;;;;;;18.65;74.94;100735.94;5032351;28;20602;-86
2021/07/09 01:39:50;;;;;;;3.63;2.93;;;;;;;18.62;74.89;100734.63;5018656;28;20415;-87
2021/07/09 01:42:16;;;;;;;5.00;2.97;;;;;;;18.59;75.10;100731.63;5018331;28;20423;-87
2021/07/09 01:44:42;;;;;;;6.22;3.88;;;;;;;18.61;75.09;100732.16;5017067;28;20453;-87
2021/07/09 01:47:08;;;;;;;4.80;2.67;;;;;;;18.58;75.53;100729.97;5017544;28;20407;-87
2021/07/09 01:49:57;;;;;;;7.90;3.30;;;;;;;18.59;74.88;100740.69;5017193;28;20442;-87
2021/07/09 01:52:23;;;;;;;4.40;3.03;;;;;;;18.57;74.72;100733.84;5017054;28;20411;-87
2021/07/09 01:54:49;;;;;;;6.30;3.20;;;;;;;18.55;74.62;100734.13;5019493;28;20417;-87
2021/07/09 01:57:15;;;;;;;5.72;3.30;;;;;;;18.56;74.86;100734.97;5015982;28;20423;-87
2021/07/09 01:59:42;;;;;;;6.45;2.83;;;;;;;18.58;74.90;100735.47;5010827;28;20407;-87
2021/07/09 02:02:08;;;;;;;4.30;3.08;;;;;;;18.56;74.89;100732.22;5017127;28;20415;-87
2021/07/09 02:04:42;;;;;;;6.50;3.40;;;;;;;18.57;74.69;100731.13;5013641;28;20412;-87
2021/07/09 02:07:08;;;;;;;5.45;3.03;;;;;;;18.54;74.70;100729.75;5017144;28;20416;-87
2021/07/09 02:09:33;;;;;;;4.10;3.13;;;;;;;18.54;74.86;100731.69;5020230;28;20410;-87
2021/07/09 02:11:58;;;;;;;5.93;3.47;;;;;;;18.48;74.70;100730.88;5019797;28;20403;-88
2021/07/09 02:14:23;;;;;;;9.17;3.73;;;;;;;18.49;74.79;100734.44;5018784;28;21205;-88
2021/07/09 02:16:49;;;;;;;5.50;2.97;;;;;;;18.48;74.75;100722.66;5034304;28;22348;-88
2021/07/09 02:19:14;;;;;;;6.60;3.15;;;;;;;18.48;74.50;100728.13;5015276;28;20422;-88
2021/07/09 02:21:42;;;;;;;6.53;3.23;;;;;;;18.51;74.63;100727.59;5011804;28;20874;-87
2021/07/09 02:24:08;;;;;;;4.47;2.95;;;;;;;18.49;74.34;100723.47;5016357;28;20418;-88
2021/07/09 02:26:33;;;;;;;4.20;2.93;;;;;;;18.48;74.57;100725.41;5013706;28;20418;-87
2021/07/09 02:28:58;;;;;;;3.05;2.75;;;;;;;18.44;74.45;100729.81;5015643;28;20502;-89
2021/07/09 02:31:24;;;;;;;4.97;2.70;;;;;;;18.39;74.61;100735.38;5021157;28;20494;-88
2021/07/09 02:33:49;;;;;;;4.00;2.78;;;;;;;18.39;74.66;100734.56;5017863;28;20410;-88
2021/07/09 02:36:15;;;;;;;4.90;2.93;;;;;;;18.38;74.58;100735.66;5015867;28;20461;-87
2021/07/09 02:38:40;;;;;;;3.80;3.00;;;;;;;18.37;74.31;100736.78;5014864;28;20427;-88
2021/07/09 02:41:05;;;;;;;7.80;2.95;;;;;;;18.36;74.39;100741.44;5018162;28;20504;-87
2021/07/09 02:43:30;;;;;;;6.90;3.30;;;;;;;18.35;74.63;100742.53;4997861;28;20416;-88
2021/07/09 02:45:56;;;;;;;4.53;3.10;;;;;;;18.31;74.69;100740.69;5034942;28;20928;-87
2021/07/09 02:48:21;;;;;;;4.15;3.03;;;;;;;18.31;74.51;100746.97;5017556;28;20469;-88
2021/07/09 02:50:47;;;;;;;4.20;3.10;;;;;;;18.29;74.76;100740.13;5017580;28;21267;-87
2021/07/09 02:53:13;;;;;;;4.05;3.10;;;;;;;18.23;74.70;100749.53;5018107;28;20411;-87
2021/07/09 02:55:38;;;;;;;3.50;2.92;;;;;;;18.19;74.66;100746.53;5018380;28;20404;-88
2021/07/09 02:58:04;;;;;;;2.97;2.67;;;;;;;18.23;74.85;100744.88;5020918;28;20418;-88
2021/07/09 03:00:29;;;;;;;4.47;3.17;;;;;;;18.21;74.66;100738.81;5022506;28;20415;-88
2021/07/09 03:02:54;;;;;;;3.37;3.07;;;;;;;18.25;74.09;100742.63;5022624;28;20423;-88
2021/07/09 03:05:20;;;;;;;5.50;3.40;;;;;;;18.23;74.67;100744.88;5022523;28;20762;-87
2021/07/09 03:07:45;;;;;;;10.20;3.23;;;;;;;18.26;74.70;100747.03;5020229;28;20477;-88
2021/07/09 03:10:12;;;;;;;4.87;3.10;;;;;;;18.27;74.42;100740.44;5021894;28;20983;-86
2021/07/09 03:12:39;;;;;;;4.28;2.78;;;;;;;18.25;74.53;100747.31;5021088;28;20403;-87
2021/07/09 03:15:06;;;;;;;4.05;3.10;;;;;;;18.23;74.19;100739.38;5021733;28;20469;-87
2021/07/09 03:17:32;;;;;;;3.33;3.07;;;;;;;18.25;74.36;100742.63;5022449;28;20834;-87
2021/07/09 03:19:57;;;;;;;2.97;2.63;;;;;;;18.23;74.11;100752.28;5038556;28;20434;-87
2021/07/09 03:22:22;;;;;;;4.50;2.93;;;;;;;18.22;74.40;100747.88;5019414;28;20468;-86
2021/07/09 03:24:47;;;;;;;5.87;3.23;;;;;;;18.18;74.56;100750.38;5020401;28;20418;-88
2021/07/09 03:27:13;;;;;;;6.30;3.13;;;;;;;18.20;74.58;100750.09;5019269;28;20415;-88
2021/07/09 03:29:38;;;;;;;5.50;3.07;;;;;;;18.17;74.37;100757.00;5022424;28;20422;-88
2021/07/09 03:32:04;;;;;;;5.00;3.07;;;;;;;18.14;74.31;100752.09;5023765;28;20517;-87
2021/07/09 03:34:29;;;;;;;5.00;3.43;;;;;;;18.14;74.22;100760.31;5019947;28;20419;-87
2021/07/09 03:36:54;;;;;;;4.63;3.20;;;;;;;18.11;74.37;100756.19;5018957;28;20785;-87
2021/07/09 03:39:20;;;;;;;5.43;3.45;;;;;;;18.18;74.41;100757.81;5016279;28;20525;-87
2021/07/09 03:41:45;;;;;;;4.70;2.93;;;;;;;18.15;74.25;100767.41;5020428;28;20419;-88
2021/07/09 03:44:11;;;;;;;6.47;3.13;;;;;;;18.09;74.53;100766.66;5022938;28;20778;-87
2021/07/09 03:46:38;;;;;;;5.28;4.07;;;;;;;18.07;75.02;100771.63;5019797;28;20422;-87
2021/07/09 03:49:04;;;;;;;6.32;3.35;;;;;;;18.08;74.90;100775.16;5019355;28;20411;-87
2021/07/09 03:51:29;;;;;;;5.28;3.42;;;;;;;18.06;75.05;100772.72;5021148;28;20481;-88
2021/07/09 03:53:54;;;;;;;6.73;5.47;;;;;;;18.08;75.10;100780.63;5017445;28;20411;-88
2021/07/09 03:56:24;;;;;;;4.70;4.07;;;;;;;18.03;75.18;100780.69;5021588;28;20901;-89
2021/07/09 03:58:50;;;;;;;7.55;4.20;;;;;;;18.01;75.45;100791.13;5017176;28;20576;-88
2021/07/09 04:01:16;;;;;;;8.63;4.00;;;;;;;17.99;75.41;100787.84;5019080;28;20549;-89
2021/07/09 04:03:41;;;;;;;9.03;3.90;;;;;;;17.99;75.45;100785.94;4999456;28;20943;-87
2021/07/09 04:06:07;;;;;;;7.33;4.00;;;;;;;17.97;75.35;100790.06;4998972;28;20408;-86
2021/07/09 04:08:32;;;;;;;4.73;3.70;;;;;;;18.00;75.28;100794.97;4999825;28;20470;-87
2021/07/09 04:10:57;;;;;;;5.87;3.63;;;;;;;17.91;75.31;100792.03;4998425;28;20438;-87
2021/07/09 04:13:23;;;;;;;6.47;3.57;;;;;;;17.93;75.67;100786.25;5001892;28;20892;-88
2021/07/09 04:15:48;;;;;;;4.47;3.73;;;;;;;17.89;75.71;100794.22;5004656;28;20424;-88
2021/07/09 04:18:14;;;;;;;6.17;3.63;;;;;;;17.90;75.78;100798.63;5000534;28;20436;-87
2021/07/09 04:20:39;;;;;;;7.72;3.70;;;;;;;17.89;75.73;100799.72;5001929;28;20916;-87
2021/07/09 04:23:05;;;;;;;7.33;3.60;;;;;;;17.91;75.61;100807.66;5001867;28;20421;-87
2021/07/09 04:25:30;;;;;;;6.83;3.60;;;;;;;17.90;75.92;100804.09;5002459;28;20775;-87
2021/07/09 04:27:55;;;;;;;4.97;3.67;;;;;;;17.91;75.94;100805.75;5000481;28;20479;-87
2021/07/09 04:30:21;;;;;;;5.30;4.33;;;;;;;17.88;75.85;100797.28;5000864;28;20515;-87
2021/07/09 04:32:46;;;;;;;8.03;3.63;;;;;;;17.88;75.83;100800.81;5003040;28;20423;-86
2021/07/09 04:35:12;;;;;;;5.70;3.95;;;;;;;17.90;75.68;100806.84;5001848;28;20548;-87
2021/07/09 04:37:38;;;;;;;4.25;3.72;;;;;;;17.89;75.90;100804.38;5002254;28;20492;-88
2021/07/09 04:40:04;;;;;;;5.10;3.30;;;;;;;17.89;75.63;100807.94;5001127;28;20417;-86
2021/07/09 04:42:30;;;;;;;3.80;3.42;;;;;;;17.87;75.90;100798.38;5003335;28;20416;-87
2021/07/09 04:44:55;;;;;;;5.43;3.37;;;;;;;17.86;75.86;100796.72;5004320;28;20408;-88
2021/07/09 04:47:20;;;;;;;6.68;3.40;;;;;;;17.86;75.92;100802.19;5002730;28;20825;-87
2021/07/09 04:49:46;;;;;;;6.57;4.40;;;;;;;17.88;75.80;100800.81;5003084;28;20719;-87
2021/07/09 04:52:11;;;;;;;7.13;4.00;;;;;;;17.88;75.52;100808.22;5002577;28;20429;-88
2021/07/09 04:54:37;;;;;;;4.70;4.30;;;;;;;17.84;75.66;100801.69;5002034;28;20413;-87
2021/07/09 04:57:02;;;;;;;5.63;3.67;;;;;;;17.84;75.57;100807.97;5001461;28;20424;-87
2021/07/09 04:59:27;;;;;;;6.32;3.70;;;;;;;17.79;75.54;100810.75;5001897;28;20486;-87
2021/07/09 05:01:53;;;;;;;4.73;3.90;;;;;;;17.81;75.59;100824.19;5000124;28;20409;-87
2021/07/09 05:04:19;;;;;;;8.18;3.92;;;;;;;17.82;75.61;100820.31;5001553;28;20466;-87
2021/07/09 05:06:44;;;;;;;5.20;4.00;;;;;;;17.85;75.52;100828.00;4998840;28;20598;-87
2021/07/09 05:09:09;;;;;;;3.67;3.40;;;;;;;17.84;75.49;100818.94;5001365;28;20506;-87
2021/07/09 05:11:35;;;;;;;4.93;3.67;;;;;;;17.85;75.65;100831.53;5002068;28;20416;-87
2021/07/09 05:14:01;;;;;;;4.88;3.63;;;;;;;17.84;75.45;100820.88;4999650;28;20423;-86
2021/07/09 05:16:27;;;;;;;8.55;4.15;;;;;;;17.87;75.58;100817.56;5004182;28;20435;-86
2021/07/09 05:18:56;;;;;;;7.07;4.18;;;;;;;17.85;75.51;100826.06;5001504;28;20420;-89
2021/07/09 05:21:23;;;;;;;9.32;3.53;;;;;;;17.79;75.54;100815.41;4999969;28;20409;-87
2021/07/09 05:23:48;;;;;;;5.17;3.63;;;;;;;17.82;75.56;100820.31;5000620;28;20520;-86
2021/07/09 05:26:17;;;;;;;6.03;3.63;;;;;;;17.88;75.81;100822.72;4998922;28;22440;-86
2021/07/09 05:28:42;;;;;;;4.23;3.43;;;;;;;17.87;75.90;100823.03;4999017;28;20420;-87
2021/07/09 05:31:07;;;;;;;5.60;3.33;;;;;;;17.82;75.71;100825.78;4998154;28;20413;-87
2021/07/09 05:33:33;;;;;;;5.33;3.63;;;;;;;17.84;75.72;100827.19;4996473;28;20421;-88
2021/07/09 05:35:58;;;;;;;3.90;3.50;;;;;;;17.86;75.51;100824.97;4998612;28;20409;-88
2021/07/09 05:38:23;;;;;;;7.60;4.20;;;;;;;17.86;75.58;100827.69;4998983;28;20468;-88
2021/07/09 05:40:49;;;;;;;4.47;3.20;;;;;;;17.93;75.62;100832.88;4996627;28;20779;-88
2021/07/09 05:43:14;;;;;;;7.25;3.53;;;;;;;17.95;75.56;100831.47;4998732;28;20421;-89
2021/07/09 05:45:40;;;;;;;3.57;3.27;;;;;;;17.93;75.39;100835.59;5004188;28;21022;-88
2021/07/09 05:48:05;;;;;;;7.60;2.90;;;;;;;18.00;75.76;100838.84;5006357;28;20767;-88
2021/07/09 05:50:31;;;;;;;6.53;3.53;;;;;;;18.04;75.52;100839.94;5006204;28;20515;-85
2021/07/09 05:52:56;;;;;;;7.50;3.90;;;;;;;18.09;75.13;100839.88;5008549;28;20909;-87
2021/07/09 05:55:22;;;;;;;3.63;3.30;;;;;;;18.13;75.23;100846.44;5009051;28;21069;-93
2021/07/09 05:57:47;;;;;;;3.60;3.30;;;;;;;18.22;75.27;100841.16;4999496;28;20416;-87
2021/07/09 06:00:16;;;;;;;4.13;3.53;;;;;;;18.27;74.85;100846.63;5010158;28;20427;-90
2021/07/09 06:02:49;;;;;;;5.28;3.33;;;;;;;18.22;74.59;100847.47;5010642;28;20444;-89
2021/07/09 06:05:15;;;;;;;3.40;3.10;;;;;;;18.26;74.79;100850.44;5010626;28;20779;-88
2021/07/09 06:07:40;;;;;;;4.13;3.42;;;;;;;18.24;74.64;100852.69;5007632;28;20417;-88
2021/07/09 06:10:06;;;;;;;3.53;3.27;;;;;;;18.27;74.30;100849.34;5006894;28;20419;-88
2021/07/09 06:12:32;;;;;;;4.70;3.50;;;;;;;18.27;74.72;100849.34;5008117;28;20413;-87
2021/07/09 06:14:57;;;;;;;4.88;3.55;;;;;;;18.27;74.59;100852.94;5008560;28;20413;-87
2021/07/09 06:17:23;;;;;;;5.73;3.27;;;;;;;18.32;74.70;100863.03;5010040;28;20505;-87
2021/07/09 06:19:48;;;;;;;3.97;3.28;;;;;;;18.29;74.44;100858.94;5004067;28;20931;-94
2021/07/09 06:22:14;;;;;;;7.23;3.50;;;;;;;18.30;74.67;100857.00;5014987;28;20417;-94
2021/07/09 06:24:39;;;;;;;5.40;3.40;;;;;;;18.30;74.43;100868.00;5012053;28;20408;-90
2021/07/09 06:27:06;;;;;;;6.13;3.33;;;;;;;18.40;74.46;100856.94;5005041;28;20443;-86
2021/07/09 06:29:32;;;;;;;4.07;3.30;;;;;;;18.41;74.22;100859.38;5009740;28;20440;-86
2021/07/09 06:31:57;;;;;;;3.33;3.03;;;;;;;18.43;73.96;100873.66;5002112;28;20914;-86
2021/07/09 06:34:22;;;;;;;5.00;3.00;;;;;;;18.47;73.77;100862.91;5010900;28;20510;-86
2021/07/09 06:36:48;;;;;;;5.27;3.10;;;;;;;18.51;74.00;100864.81;5007625;28;20421;-86
2021/07/09 06:39:15;;;;;;;7.33;3.40;;;;;;;18.60;73.98;100867.78;5006722;28;20520;-87
2021/07/09 06:41:41;;;;;;;5.57;2.90;;;;;;;18.62;73.79;100871.88;5002723;28;20415;-86
2021/07/09 06:44:06;;;;;;;3.77;3.07;;;;;;;18.70;73.34;100867.69;5009644;28;20420;-87
2021/07/09 06:46:31;;;;;;;6.07;3.50;;;;;;;18.73;73.24;100869.03;5007856;28;20420;-86
2021/07/09 06:48:57;;;;;;;4.10;3.23;;;;;;;18.83;73.51;100878.00;5008006;28;20480;-86
2021/07/09 06:51:22;;;;;;;6.60;3.47;;;;;;;18.91;73.51;100877.34;5006690;28;20554;-86
2021/07/09 06:53:47;;;;;;;7.20;3.33;;;;;;;18.97;73.00;100878.94;5007183;28;21226;-86
2021/07/09 06:56:14;;;;;;;6.97;3.30;;;;;;;19.00;72.71;100872.06;5008044;28;20834;-86
2021/07/09 06:58:39;;;;;;;3.08;2.85;;;;;;;19.01;72.71;100880.00;5007886;28;20412;-86
2021/07/09 07:01:05;;;;;;;5.10;3.30;;;;;;;19.09;72.64;100887.63;5008771;28;20474;-87
2021/07/09 07:03:33;;;;;;;4.78;3.20;;;;;;;19.19;72.54;100881.19;5008019;28;20424;-87
2021/07/09 07:05:58;;;;;;;6.18;3.10;;;;;;;19.22;71.96;100879.78;5007631;28;20991;-87
2021/07/09 07:08:30;;;;;;;4.67;3.23;;;;;;;19.24;71.98;100878.38;5008983;28;20495;-87
2021/07/09 07:10:58;;;;;;;8.45;3.95;;;;;;;19.30;72.05;100884.66;5009506;28;20420;-86
2021/07/09 07:13:25;;;;;;;4.47;3.13;;;;;;;19.43;71.41;100889.47;5008941;28;20419;-86
2021/07/09 07:15:51;;;;;;;3.58;3.22;;;;;;;19.54;71.37;100885.47;4998898;28;20897;-86
2021/07/09 07:18:17;;;;;;;6.05;3.20;;;;;;;19.74;71.14;100884.38;5008328;28;20447;-88
2021/07/09 07:20:46;;;;;;;3.63;3.30;;;;;;;19.85;70.56;100881.22;5005329;28;20900;-87
2021/07/09 07:23:20;;;;;;;4.20;3.28;;;;;;;19.94;70.62;100876.69;5009476;28;20528;-87
2021/07/09 07:25:46;;;;;;;5.43;2.70;;;;;;;19.93;70.15;100883.28;5005484;28;20415;-86
2021/07/09 07:28:19;;;;;;;3.33;3.03;;;;;;;19.94;69.96;100879.44;5010976;28;20811;-87
2021/07/09 07:30:45;;;;;;;7.20;3.75;;;;;;;20.03;69.91;100880.41;5006308;28;21123;-86
2021/07/09 07:33:13;;;;;;;3.87;2.87;;;;;;;20.04;69.34;100876.53;5011029;28;20511;-86
2021/07/09 07:35:39;;;;;;;2.92;2.72;;;;;;;20.13;69.38;100880.25;5008463;28;20427;-87
2021/07/09 07:38:07;;;;;;;5.10;3.05;;;;;;;20.27;69.16;100876.78;5006476;28;20972;-87
2021/07/09 07:40:36;;;;;;;4.97;3.20;;;;;;;20.44;68.88;100875.13;5004622;28;20408;-86
2021/07/09 07:43:02;;;;;;;6.10;3.13;;;;;;;20.58;68.83;100877.94;5011247;28;20413;-86
2021/07/09 07:45:27;;;;;;;8.95;3.65;;;;;;;20.72;68.27;100878.78;5005388;28;20911;-87
2021/07/09 07:47:53;;;;;;;5.32;3.35;;;;;;;20.72;67.86;100873.25;5009954;28;20408;-87
2021/07/09 07:50:21;;;;;;;3.83;3.30;;;;;;;20.81;68.03;100878.91;5012990;28;20412;-88
2021/07/09 07:52:47;;;;;;;2.87;2.60;;;;;;;20.92;66.76;100877.59;5006140;28;20423;-88
2021/07/09 07:55:13;;;;;;;4.10;3.10;;;;;;;20.88;66.91;100877.38;5005095;28;20409;-88
2021/07/09 07:57:38;;;;;;;4.77;3.23;;;;;;;20.92;66.90;100872.91;5013047;28;20409;-87
2021/07/09 08:00:05;;;;;;;4.20;3.30;;;;;;;21.01;67.07;100873.03;5013238;28;20834;-87
2021/07/09 08:02:30;;;;;;;3.47;3.17;;;;;;;21.02;66.66;100877.41;5008710;28;20418;-87
2021/07/09 08:04:56;;;;;;;4.30;3.17;;;;;;;20.97;66.60;100877.50;5003671;28;20459;-87
2021/07/09 08:07:21;;;;;;;3.70;3.40;;;;;;;20.83;66.19;100882.16;5006180;28;20399;-88
2021/07/09 08:09:46;;;;;;;8.83;3.53;;;;;;;20.97;65.97;100875.56;4999798;28;20413;-87
2021/07/09 08:12:12;;;;;;;6.10;2.87;;;;;;;21.19;65.64;100880.41;5009409;28;20814;-88
2021/07/09 08:14:37;;;;;;;4.33;3.93;;;;;;;21.17;65.48;100877.97;4997812;28;20413;-87
2021/07/09 08:17:06;;;;;;;3.90;2.93;;;;;;;21.25;65.92;100875.63;5010800;28;20424;-87
2021/07/09 08:19:31;;;;;;;3.30;3.10;;;;;;;21.20;65.15;100877.38;5012732;28;20413;-87
2021/07/09 08:21:57;;;;;;;4.22;3.58;;;;;;;21.28;65.55;100869.50;5012963;28;20435;-87
2021/07/09 08:24:23;;;;;;;5.80;3.10;;;;;;;21.48;65.58;100877.34;5009608;28;20416;-87
2021/07/09 08:26:48;;;;;;;4.83;3.53;;;;;;;21.49;64.78;100879.81;5013829;28;20451;-87
2021/07/09 08:29:13;;;;;;;5.22;3.03;;;;;;;21.61;64.11;100876.53;5009858;28;20473;-87
2021/07/09 08:31:39;;;;;;;6.87;3.53;;;;;;;21.59;64.50;100871.34;5013778;28;20421;-87
2021/07/09 08:34:04;;;;;;;3.60;3.13;;;;;;;21.49;64.03;100877.06;5007078;28;20457;-86
2021/07/09 08:36:31;;;;;;;5.43;3.05;;;;;;;21.56;64.63;100879.41;5008857;28;20430;-87
2021/07/09 08:38:56;;;;;;;4.70;3.00;;;;;;;21.73;64.67;100872.09;5007336;28;20397;-87
2021/07/09 08:41:22;;;;;;;4.23;2.97;;;;;;;21.83;64.50;100865.56;5012219;28;20471;-87
2021/07/09 08:43:48;;;;;;;3.67;3.22;;;;;;;21.94;64.53;100866.19;5000165;28;20782;-88
2021/07/09 08:46:14;;;;;;;4.60;3.28;;;;;;;22.03;64.40;100878.91;5010391;28;20422;-87
2021/07/09 08:48:42;;;;;;;4.18;2.67;;;;;;;22.27;64.01;100872.31;5011858;28;20418;-86
2021/07/09 08:51:08;;;;;;;5.50;2.93;;;;;;;22.57;63.92;100866.84;5009630;28;20499;-90
2021/07/09 08:53:34;;;;;;;5.97;3.13;;;;;;;23.10;62.47;100869.63;4995315;28;20416;-87
2021/07/09 08:56:00;;;;;;;6.95;3.47;;;;;;;23.61;61.46;100873.75;5008845;28;20407;-87
2021/07/09 08:58:26;;;;;;;5.47;3.17;;;;;;;24.37;60.09;100863.09;5008076;28;20433;-86
2021/07/09 09:00:51;;;;;;;4.68;3.17;;;;;;;25.01;57.11;100875.88;5012280;28;20482;-86
2021/07/09 09:03:24;;;;;;;6.03;3.47;;;;;;;25.37;55.79;100877.34;5012920;28;20843;-88
2021/07/09 09:05:51;;;;;;;4.30;3.10;;;;;;;25.76;54.45;100885.31;5007955;28;20507;-86
2021/07/09 09:08:19;;;;;;;5.82;2.75;;;;;;;25.89;53.34;100889.81;5007548;28;20930;-87
2021/07/09 09:10:59;;;;;;;3.50;2.95;;;;;;;26.09;53.37;100888.19;5005062;28;20421;-86
2021/07/09 09:13:24;;;;;;;5.07;3.30;;;;;;;25.89;53.53;100883.44;5010099;28;20416;-87
2021/07/09 09:16:01;;;;;;;4.37;3.63;;;;;;;25.29;55.01;100879.03;5002092;28;20429;-87
2021/07/09 09:18:29;;;;;;;4.28;3.38;;;;;;;25.70;54.89;100889.44;5011428;28;20408;-87
2021/07/09 09:20:57;;;;;;;4.20;3.85;;;;;;;25.58;53.36;100889.38;5007746;28;20412;-88
2021/07/09 09:23:26;;;;;;;4.47;3.55;;;;;;;24.74;55.42;100893.69;5011036;28;20417;-87
2021/07/09 09:25:52;;;;;;;4.07;3.63;;;;;;;24.21;57.18;100893.22;5007689;28;20419;-87
2021/07/09 09:28:18;;;;;;;3.88;3.47;;;;;;;23.75;57.99;100889.06;5012492;28;20927;-87
2021/07/09 09:30:49;;;;;;;4.73;4.27;;;;;;;23.56;58.61;100883.00;5010036;28;20558;-87
2021/07/09 09:33:15;;;;;;;5.53;3.58;;;;;;;25.14;56.84;100879.56;5012512;28;20455;-87
2021/07/09 09:35:43;;;;;;;4.53;3.83;;;;;;;26.59;52.52;100877.84;5006661;28;20907;-87
2021/07/09 09:38:11;;;;;;;6.70;4.18;;;;;;;26.93;49.97;100893.38;5011916;28;20397;-87
2021/07/09 09:40:38;;;;;;;6.57;3.90;;;;;;;27.32;49.79;100876.06;5011023;28;20412;-87
2021/07/09 09:43:17;;;;;;;6.03;3.58;;;;;;;26.68;50.71;100878.56;5011156;28;20427;-87
2021/07/09 09:45:43;;;;;;;8.63;4.50;;;;;;;25.73;52.87;100883.22;5008157;28;20943;-87
2021/07/09 09:48:11;;;;;;;4.82;4.05;;;;;;;24.90;55.23;100879.31;5011837;28;20459;-88
2021/07/09 09:50:46;;;;;;;5.20;3.93;;;;;;;24.32;56.60;100886.22;5010182;28;20420;-87
2021/07/09 09:53:12;;;;;;;8.30;4.88;;;;;;;23.84;58.66;100891.06;5009541;28;20507;-87
2021/07/09 09:55:38;;;;;;;5.28;4.25;;;;;;;23.43;60.79;100881.19;5010767;28;20504;-87
2021/07/09 09:58:21;;;;;;;10.70;6.05;;;;;;;23.06;63.64;100876.09;5010803;28;20440;-86
2021/07/09 10:00:48;;;;;;;10.60;5.28;;;;;;;22.86;65.51;100869.16;5003126;28;20418;-86
2021/07/09 10:03:14;;;;;;;9.00;5.88;;;;;;;22.66;65.71;100876.03;5006059;28;20424;-86
2021/07/09 10:05:42;;;;;;;12.33;6.03;;;;;;;22.53;67.39;100876.06;4998077;28;20505;-86
2021/07/09 10:08:13;;;;;;;8.13;5.75;;;;;;;22.43;67.73;100868.84;5006749;28;20442;-86
2021/07/09 10:10:43;;;;;;;13.77;6.87;;;;;;;22.31;68.27;100876.91;5006102;28;20831;-87
2021/07/09 10:13:10;;;;;;;38.03;12.85;;;;;;;22.07;71.28;100859.81;5007996;28;20408;-87
2021/07/09 10:15:39;;;;;;;8.98;7.22;;;;;;;21.90;70.60;100860.47;5007672;28;20416;-86
2021/07/09 10:18:05;;;;;;;8.13;7.28;;;;;;;21.91;71.46;100866.81;5010658;28;20776;-87
2021/07/09 10:20:31;;;;;;;9.50;6.33;;;;;;;21.93;71.60;100861.81;5010045;28;20759;-87
2021/07/09 10:22:59;;;;;;;9.10;7.88;;;;;;;22.07;72.13;100857.03;5011834;28;20468;-87
2021/07/09 10:25:27;;;;;;;11.13;7.35;;;;;;;22.48;71.53;100860.47;5009398;28;20416;-87
2021/07/09 10:27:53;;;;;;;7.45;6.70;;;;;;;23.05;70.04;100866.19;5010682;28;20427;-86
2021/07/09 10:30:18;;;;;;;10.70;7.40;;;;;;;23.18;70.42;100868.84;5006652;28;20793;-86
2021/07/09 10:32:48;;;;;;;10.05;6.70;;;;;;;23.27;69.98;100861.41;5010497;28;20400;-87
2021/07/09 10:35:34;;;;;;;8.40;6.40;;;;;;;23.32;69.60;100856.84;5008836;28;20416;-87
2021/07/09 10:38:14;;;;;;;6.95;5.90;;;;;;;23.34;69.91;100860.94;5008729;28;20421;-86
2021/07/09 10:40:40;;;;;;;7.68;5.95;;;;;;;23.42;69.25;100857.41;5007462;28;20423;-90
2021/07/09 10:43:06;;;;;;;6.63;5.80;;;;;;;23.58;68.68;100855.00;4996227;28;20495;-89
2021/07/09 10:45:32;;;;;;;5.57;4.88;;;;;;;24.57;67.15;100854.91;5009630;28;20504;-86
2021/07/09 10:48:11;;;;;;;7.07;6.05;;;;;;;25.02;65.32;100855.31;5011566;28;20484;-85
2021/07/09 10:50:44;;;;;;;6.55;5.00;;;;;;;24.78;64.64;100858.63;5009712;28;20471;-86
2021/07/09 10:53:10;;;;;;;6.30;5.07;;;;;;;24.30;65.73;100858.06;4994077;28;20478;-86
2021/07/09 10:55:45;;;;;;;8.37;5.27;;;;;;;23.90;66.14;100851.81;5008952;28;20908;-85
2021/07/09 10:58:19;;;;;;;6.25;5.70;;;;;;;23.56;67.13;100857.28;4995884;28;20427;-86
2021/07/09 11:00:45;;;;;;;6.67;5.07;;;;;;;23.31;66.65;100849.72;5010396;28;20896;-86
2021/07/09 11:03:12;;;;;;;6.95;6.30;;;;;;;23.24;68.32;100847.41;5010874;28;20435;-86
2021/07/09 11:05:43;;;;;;;6.20;5.60;;;;;;;23.72;67.80;100848.22;5008806;28;20455;-86
2021/07/09 11:08:30;;;;;;;6.25;5.13;;;;;;;24.27;65.63;100834.56;5008783;28;20404;-86
2021/07/09 11:11:07;;;;;;;5.55;4.88;;;;;;;26.40;59.28;100830.28;5007976;28;20417;-89
2021/07/09 11:13:42;;;;;;;7.23;4.20;;;;;;;28.46;55.90;100832.22;5021221;28;20414;-86
2021/07/09 11:16:35;;;;;;;5.63;5.10;;;;;;;28.50;53.97;100830.34;5006597;28;20427;-86
2021/07/09 11:19:03;;;;;;;5.20;4.57;;;;;;;26.94;56.18;100835.78;5011650;28;20572;-87
2021/07/09 11:21:31;;;;;;;5.30;4.80;;;;;;;25.70;58.42;100839.50;5012134;28;20389;-86
2021/07/09 11:24:03;;;;;;;5.63;5.07;;;;;;;24.94;61.56;100842.28;4995140;28;20505;-87